Terminal Aerodrome Forecast
Issued by NWS

Home | Current Version | Previous Version | Text Only | Print | Product List | Glossary On
Versions: 1 2 3 4 5 6 7 8 9 10 11 12 13 14 15 16 17 18 19 20
000
FTUS43 KMQT 050520
TAFCMX
TAF
KCMX 050520Z 0506/0606 09005KT P6SM SKC
     FM050900 00000KT P6SM SKC
     FM051100 00000KT 5SM BR SCT120
     FM051300 12007KT P6SM SCT070
     FM060500 19006KT P6SM BKN140=

USA.gov is the U.S. government's official web portal to all federal, state and local government web resources and services.